Time;durP1;ratioP1;P1;durP2;ratioP2;P2;SDS_P1;SDS_P2;PMS_P1;PMS_P2;Temp;Humidity;BMP_temperature;BMP_pressure;BME280_temperature;BME280_humidity;BME280_pressure;Samples;Min_cycle;Max_cycle;Signal;HPM_P1;HPM_P2
2022/11/26 00:01:40;;;;;;;7.67;4.67;;;;;;;8.34;94.55;96470.56;5031196;28;20233;-79
2022/11/26 00:04:08;;;;;;;6.60;4.80;;;;;;;8.32;94.25;96471.50;5030873;28;20198;-81
2022/11/26 00:06:36;;;;;;;6.07;4.47;;;;;;;8.24;94.61;96465.44;5031168;28;20228;-79
2022/11/26 00:09:05;;;;;;;6.00;4.67;;;;;;;8.19;94.64;96472.75;5023153;28;20545;-81
2022/11/26 00:11:32;;;;;;;7.13;4.90;;;;;;;8.16;94.65;96465.31;5030694;28;20218;-85
2022/11/26 00:13:58;;;;;;;8.57;5.33;;;;;;;8.15;94.72;96463.69;5030932;28;20200;-81
2022/11/26 00:16:24;;;;;;;6.97;4.40;;;;;;;8.15;94.53;96468.81;5036912;28;20200;-81
2022/11/26 00:18:51;;;;;;;5.93;4.63;;;;;;;8.13;94.52;96476.66;5030904;28;20198;-83
2022/11/26 00:21:22;;;;;;;6.30;5.20;;;;;;;8.07;94.30;96469.53;5030603;28;20230;-83
2022/11/26 00:23:49;;;;;;;7.77;4.93;;;;;;;8.13;94.72;96468.16;5031289;28;20191;-82
2022/11/26 00:26:18;;;;;;;8.07;4.57;;;;;;;8.16;94.04;96473.81;5030956;28;20226;-82
2022/11/26 00:28:50;;;;;;;9.40;4.43;;;;;;;8.18;93.72;96471.94;5030799;28;20216;-80
2022/11/26 00:31:17;;;;;;;7.40;4.70;;;;;;;8.12;93.75;96472.47;5030844;28;20217;-81
2022/11/26 00:33:44;;;;;;;7.47;4.63;;;;;;;8.11;93.94;96472.63;5031038;28;20194;-82
2022/11/26 00:36:18;;;;;;;8.23;4.97;;;;;;;8.18;93.39;96477.06;5031167;28;20198;-80
2022/11/26 00:38:47;;;;;;;7.23;4.70;;;;;;;8.24;92.38;96475.69;5030462;28;20220;-82
2022/11/26 00:41:17;;;;;;;8.37;4.60;;;;;;;8.26;92.69;96490.00;5029917;28;20325;-82
2022/11/26 00:43:45;;;;;;;6.73;4.17;;;;;;;8.28;92.56;96490.66;5026996;28;20198;-81
2022/11/26 00:46:13;;;;;;;8.10;5.47;;;;;;;8.29;92.18;96492.28;5030843;28;20220;-83
2022/11/26 00:48:39;;;;;;;6.17;4.30;;;;;;;8.23;91.83;96497.97;5030146;28;20197;-83
2022/11/26 00:51:06;;;;;;;5.57;4.30;;;;;;;8.19;91.75;96503.53;5030102;28;20222;-82
2022/11/26 00:53:33;;;;;;;8.10;4.20;;;;;;;8.13;92.25;96502.31;5030517;28;20201;-82
2022/11/26 00:56:00;;;;;;;7.33;4.40;;;;;;;8.09;92.07;96502.72;5029937;28;20187;-81
2022/11/26 00:58:29;;;;;;;8.47;4.47;;;;;;;8.10;92.04;96505.16;5030352;28;20863;-83
2022/11/26 01:01:00;;;;;;;8.30;4.13;;;;;;;8.08;92.00;96506.25;5029605;28;20217;-81
2022/11/26 01:03:26;;;;;;;6.03;3.97;;;;;;;8.04;92.58;96507.47;5030221;28;20190;-82
2022/11/26 01:05:55;;;;;;;5.50;4.13;;;;;;;8.04;92.64;96515.16;5047369;28;20217;-82
2022/11/26 01:08:28;;;;;;;6.87;4.63;;;;;;;8.00;92.60;96518.94;5038062;28;20209;-81
2022/11/26 01:10:55;;;;;;;5.77;4.10;;;;;;;8.00;92.89;96521.50;5031754;28;20689;-83
2022/11/26 01:13:23;;;;;;;5.27;3.97;;;;;;;7.93;92.97;96524.63;5030130;28;20198;-81
2022/11/26 01:15:49;;;;;;;5.33;4.23;;;;;;;7.94;92.80;96523.66;5030271;28;20197;-83
2022/11/26 01:18:20;;;;;;;6.77;4.07;;;;;;;7.98;93.02;96530.16;5030427;28;20213;-82
2022/11/26 01:20:47;;;;;;;7.10;4.23;;;;;;;7.96;93.04;96534.59;5030149;28;20325;-80
2022/11/26 01:23:16;;;;;;;8.60;4.60;;;;;;;7.93;93.46;96534.06;5030188;28;20820;-83
2022/11/26 01:25:44;;;;;;;6.00;4.23;;;;;;;7.93;93.24;96528.94;5029558;28;20237;-81
2022/11/26 01:28:12;;;;;;;6.67;4.03;;;;;;;7.88;93.57;96528.56;5029284;28;20192;-81
2022/11/26 01:30:40;;;;;;;7.20;4.27;;;;;;;7.94;93.26;96531.38;5029955;28;20222;-82
2022/11/26 01:33:07;;;;;;;5.13;4.20;;;;;;;7.90;92.58;96539.47;5029465;28;20191;-83
2022/11/26 01:35:35;;;;;;;7.80;4.23;;;;;;;7.95;92.70;96538.13;5029674;28;20198;-82
2022/11/26 01:38:01;;;;;;;7.27;4.10;;;;;;;8.03;92.37;96544.31;5029024;28;20229;-81
2022/11/26 01:41:00;;;;;;;4.43;3.87;;;;;;;7.99;92.37;96551.47;5029258;28;20213;-81
2022/11/26 01:43:28;;;;;;;6.57;3.97;;;;;;;8.00;92.21;96542.84;5024241;28;20202;-83
2022/11/26 01:45:56;;;;;;;6.73;3.87;;;;;;;7.92;92.36;96548.63;5029722;28;20221;-83
2022/11/26 01:48:26;;;;;;;6.00;3.80;;;;;;;8.01;92.28;96543.66;5029209;28;20201;-80
2022/11/26 01:51:03;;;;;;;5.50;3.87;;;;;;;8.05;92.31;96557.81;5029554;28;20233;-83
2022/11/26 01:53:39;;;;;;;5.60;3.87;;;;;;;7.98;91.61;96547.28;5029723;28;20197;-83
2022/11/26 01:56:15;;;;;;;5.10;3.60;;;;;;;8.03;91.58;96552.03;5021032;28;20713;-82
2022/11/26 01:58:47;;;;;;;6.13;4.23;;;;;;;8.05;91.38;96556.06;5029062;28;20186;-82
2022/11/26 02:01:16;;;;;;;7.60;4.00;;;;;;;8.05;91.30;96557.81;5029225;28;20300;-83
2022/11/26 02:03:48;;;;;;;5.13;3.70;;;;;;;8.03;90.71;96557.97;5024723;28;20273;-84
2022/11/26 02:06:19;;;;;;;4.20;3.40;;;;;;;7.97;90.87;96559.31;5029290;28;20806;-83
2022/11/26 02:08:46;;;;;;;6.17;4.23;;;;;;;8.03;90.95;96570.78;5028181;28;20218;-84
2022/11/26 02:11:17;;;;;;;6.77;3.70;;;;;;;8.07;91.16;96563.63;5029327;28;20264;-82
2022/11/26 02:13:44;;;;;;;6.63;3.70;;;;;;;7.99;90.90;96559.16;5028122;28;20632;-83
2022/11/26 02:16:19;;;;;;;5.63;3.50;;;;;;;8.00;90.54;96565.91;5034805;28;20221;-83
2022/11/26 02:18:52;;;;;;;6.60;3.80;;;;;;;7.98;90.79;96566.06;5021654;28;20220;-82
2022/11/26 02:21:23;;;;;;;8.00;3.70;;;;;;;7.94;90.48;96562.13;5028482;28;20224;-81
2022/11/26 02:24:20;;;;;;;5.43;3.77;;;;;;;7.97;90.09;96569.56;5028681;28;20221;-81
2022/11/26 02:27:01;;;;;;;7.67;3.57;;;;;;;7.97;90.53;96559.31;5028819;28;20237;-83
2022/11/26 02:29:48;;;;;;;5.00;3.33;;;;;;;8.02;90.14;96565.78;5020621;28;20202;-81
2022/11/26 02:32:20;;;;;;;7.13;3.60;;;;;;;8.05;90.60;96571.47;5027825;28;20221;-81
2022/11/26 02:34:54;;;;;;;5.47;3.13;;;;;;;8.02;90.23;96573.47;5028328;28;20190;-82
2022/11/26 02:37:25;;;;;;;6.00;3.60;;;;;;;8.06;90.47;96570.50;5028754;28;20285;-81
2022/11/26 02:39:52;;;;;;;6.70;3.53;;;;;;;8.05;90.78;96574.03;5029981;28;20202;-83
2022/11/26 02:42:25;;;;;;;4.93;3.27;;;;;;;8.02;90.53;96568.34;5032114;28;20214;-82
2022/11/26 02:44:54;;;;;;;4.37;3.07;;;;;;;8.02;90.25;96569.16;5032525;28;20658;-83
2022/11/26 02:47:26;;;;;;;4.87;3.50;;;;;;;8.04;90.15;96566.47;5032631;28;20218;-83
2022/11/26 02:49:55;;;;;;;4.70;3.50;;;;;;;8.01;90.26;96570.09;5032270;28;20198;-82
2022/11/26 02:52:23;;;;;;;4.23;3.13;;;;;;;7.95;90.44;96568.88;5032282;28;20226;-83
2022/11/26 02:54:51;;;;;;;5.00;3.47;;;;;;;7.97;90.44;96574.69;5032963;28;20191;-81
2022/11/26 02:57:20;;;;;;;7.27;3.90;;;;;;;7.91;90.18;96577.78;5032477;28;20201;-83
2022/11/26 02:59:47;;;;;;;6.57;3.50;;;;;;;7.90;91.03;96578.72;5032125;28;20194;-81
2022/11/26 03:02:21;;;;;;;5.70;3.53;;;;;;;7.92;90.79;96578.59;5032708;28;20222;-83
2022/11/26 03:04:53;;;;;;;5.63;3.80;;;;;;;7.89;90.76;96587.38;5032592;28;20181;-81
2022/11/26 03:07:19;;;;;;;7.70;4.10;;;;;;;7.95;90.80;96586.84;5032186;28;20229;-82
2022/11/26 03:09:50;;;;;;;6.47;3.67;;;;;;;7.97;90.77;96587.50;5032238;28;20197;-83
2022/11/26 03:12:16;;;;;;;4.17;3.53;;;;;;;7.98;90.64;96590.88;5031700;28;20214;-83
2022/11/26 03:14:43;;;;;;;3.53;3.10;;;;;;;8.02;90.08;96588.88;5032574;28;20205;-82
2022/11/26 03:17:09;;;;;;;9.93;3.97;;;;;;;8.01;90.21;96594.94;5031912;28;20208;-82
2022/11/26 03:19:36;;;;;;;6.30;3.33;;;;;;;8.00;89.97;96595.88;5031486;28;20205;-81
2022/11/26 03:22:04;;;;;;;4.43;3.17;;;;;;;8.02;89.81;96596.56;5032019;28;20229;-83
2022/11/26 03:24:31;;;;;;;5.93;3.37;;;;;;;8.07;89.96;96592.66;5031987;28;20202;-85
2022/11/26 03:26:57;;;;;;;7.73;3.80;;;;;;;8.05;89.76;96593.72;5031868;28;20218;-81
2022/11/26 03:29:24;;;;;;;4.80;3.37;;;;;;;8.07;89.92;96594.41;5031524;28;20190;-83
2022/11/26 03:31:50;;;;;;;4.90;3.37;;;;;;;8.07;90.19;96589.28;5031928;28;20218;-81
2022/11/26 03:34:17;;;;;;;6.07;3.60;;;;;;;8.04;89.58;96587.78;5031741;28;20201;-83
2022/11/26 03:36:43;;;;;;;8.57;3.80;;;;;;;8.06;89.84;96593.59;5031993;28;20187;-82
2022/11/26 03:39:11;;;;;;;5.10;3.67;;;;;;;8.06;89.65;96585.91;5031467;28;20622;-83
2022/11/26 03:41:38;;;;;;;5.70;3.93;;;;;;;8.05;90.12;96594.53;5031804;28;20222;-81
2022/11/26 03:44:05;;;;;;;7.80;4.07;;;;;;;8.08;89.79;96598.59;5031940;28;20198;-80
2022/11/26 03:46:31;;;;;;;9.10;4.30;;;;;;;8.07;90.04;96595.22;5031623;28;20226;-81
2022/11/26 03:48:58;;;;;;;5.87;3.30;;;;;;;8.06;90.18;96600.47;5031320;28;20195;-81
2022/11/26 03:51:24;;;;;;;5.73;4.00;;;;;;;8.04;90.07;96598.03;5029973;28;20220;-79
2022/11/26 03:53:51;;;;;;;5.60;3.63;;;;;;;8.09;89.79;96607.88;5031477;28;20198;-80
2022/11/26 03:56:19;;;;;;;6.30;3.93;;;;;;;8.09;90.20;96613.00;5031692;28;20194;-79
2022/11/26 03:58:45;;;;;;;5.27;3.67;;;;;;;8.09;90.13;96621.50;5031143;28;20199;-79
2022/11/26 04:01:12;;;;;;;5.70;3.50;;;;;;;8.06;90.31;96621.81;5030990;28;20214;-81
2022/11/26 04:03:40;;;;;;;5.23;3.63;;;;;;;8.08;90.29;96621.69;5030569;28;20217;-81
2022/11/26 04:06:07;;;;;;;5.10;3.77;;;;;;;8.09;90.22;96626.66;5030808;28;20218;-79
2022/11/26 04:08:33;;;;;;;4.70;3.40;;;;;;;8.07;90.90;96626.00;5031012;28;20198;-80
2022/11/26 04:11:00;;;;;;;7.07;3.80;;;;;;;8.05;90.46;96625.31;5030806;28;20244;-79
2022/11/26 04:13:28;;;;;;;4.90;3.27;;;;;;;8.04;90.23;96633.13;5029762;28;20202;-81
2022/11/26 04:15:54;;;;;;;9.03;4.33;;;;;;;8.01;90.61;96623.97;5030998;28;20759;-78
2022/11/26 04:18:21;;;;;;;7.40;4.30;;;;;;;7.99;90.64;96630.97;5031193;28;20194;-79
2022/11/26 04:20:47;;;;;;;6.17;3.43;;;;;;;8.05;90.36;96634.75;5030819;28;20222;-81
2022/11/26 04:23:14;;;;;;;7.13;3.90;;;;;;;8.09;90.39;96636.09;5030205;28;20198;-81
2022/11/26 04:25:40;;;;;;;7.97;4.03;;;;;;;8.10;90.07;96638.53;5026211;28;20289;-79
2022/11/26 04:28:07;;;;;;;5.73;4.20;;;;;;;8.14;90.13;96644.19;5030984;28;20194;-81
2022/11/26 04:30:34;;;;;;;5.63;4.13;;;;;;;8.12;89.77;96639.19;5031416;28;20943;-81
2022/11/26 04:33:01;;;;;;;9.13;4.30;;;;;;;8.10;90.12;96647.97;5032835;28;20194;-80
2022/11/26 04:35:27;;;;;;;5.23;3.63;;;;;;;8.12;90.36;96654.59;5030567;28;20930;-81
2022/11/26 04:37:54;;;;;;;7.57;4.40;;;;;;;8.14;89.80;96652.72;5022875;28;20197;-80
2022/11/26 04:40:20;;;;;;;6.47;4.17;;;;;;;8.16;89.62;96653.38;5030411;28;20205;-80
2022/11/26 04:42:47;;;;;;;8.50;4.43;;;;;;;8.15;89.73;96663.78;5030282;28;20229;-79
2022/11/26 04:45:13;;;;;;;5.40;3.97;;;;;;;8.12;89.03;96666.59;5030407;28;20198;-78
2022/11/26 04:47:41;;;;;;;5.37;3.70;;;;;;;8.13;89.10;96663.09;5021791;28;20233;-80
2022/11/26 04:50:09;;;;;;;7.67;4.33;;;;;;;8.08;89.10;96675.53;5029936;28;20674;-81
2022/11/26 04:52:35;;;;;;;7.40;4.10;;;;;;;8.03;89.64;96682.81;5030366;28;20226;-81
2022/11/26 04:55:02;;;;;;;5.00;3.90;;;;;;;8.09;89.67;96677.13;5030280;28;20285;-80
2022/11/26 04:57:28;;;;;;;9.60;4.37;;;;;;;8.12;89.54;96679.44;5030621;28;20198;-82
2022/11/26 04:59:55;;;;;;;6.97;4.67;;;;;;;8.11;89.64;96688.06;5029945;28;20194;-78
2022/11/26 05:02:21;;;;;;;7.50;4.53;;;;;;;8.09;89.15;96690.75;5030040;28;20875;-81
2022/11/26 05:04:49;;;;;;;7.77;4.37;;;;;;;8.10;89.25;96686.44;5030581;28;20198;-81
2022/11/26 05:07:15;;;;;;;7.20;4.33;;;;;;;8.10;89.41;96691.56;5030359;28;20218;-79
2022/11/26 05:09:42;;;;;;;7.50;4.57;;;;;;;8.07;89.40;96702.13;5029780;28;20198;-81
2022/11/26 05:12:10;;;;;;;8.30;4.60;;;;;;;8.06;89.10;96698.75;5029860;28;20218;-81
2022/11/26 05:14:36;;;;;;;5.90;4.20;;;;;;;8.06;89.13;96697.94;5029981;28;20202;-81
2022/11/26 05:17:02;;;;;;;8.27;4.53;;;;;;;8.09;89.28;96695.91;5029915;28;20197;-81
2022/11/26 05:19:29;;;;;;;8.33;4.90;;;;;;;8.10;88.81;96707.78;5029342;28;20198;-80
2022/11/26 05:21:57;;;;;;;6.43;4.40;;;;;;;8.08;89.58;96711.44;5029747;28;20225;-80
2022/11/26 05:24:23;;;;;;;9.27;5.07;;;;;;;8.09;89.98;96716.41;5029347;28;20198;-81
2022/11/26 05:26:50;;;;;;;8.90;4.50;;;;;;;8.05;89.53;96716.84;5029646;28;20226;-81
2022/11/26 05:29:16;;;;;;;7.80;4.53;;;;;;;8.06;89.98;96726.16;5029287;28;20563;-79
2022/11/26 05:31:43;;;;;;;7.60;4.93;;;;;;;8.07;89.58;96720.09;5035737;28;20589;-82
2022/11/26 05:34:09;;;;;;;8.07;4.73;;;;;;;8.07;89.32;96717.53;5029892;28;20198;-79
2022/11/26 05:36:36;;;;;;;6.13;5.03;;;;;;;8.04;89.14;96730.59;5030196;28;20194;-81
2022/11/26 05:39:04;;;;;;;7.83;4.70;;;;;;;8.04;89.28;96728.84;5029159;28;20209;-79
2022/11/26 05:41:31;;;;;;;7.40;4.63;;;;;;;8.09;88.99;96734.38;5029610;28;20211;-79
2022/11/26 05:43:57;;;;;;;7.00;4.60;;;;;;;8.08;88.94;96734.53;5029655;28;20198;-81
2022/11/26 05:46:24;;;;;;;6.17;4.30;;;;;;;8.07;89.01;96736.28;5029683;28;20233;-83
2022/11/26 05:48:50;;;;;;;7.60;4.53;;;;;;;8.06;88.94;96732.09;5029234;28;20202;-81
2022/11/26 05:51:17;;;;;;;7.87;4.90;;;;;;;8.08;88.80;96739.66;5029564;28;20218;-80
2022/11/26 05:53:43;;;;;;;7.13;4.30;;;;;;;8.04;89.67;96736.53;5029310;28;20198;-78
2022/11/26 05:56:11;;;;;;;4.57;4.17;;;;;;;8.06;89.57;96741.53;5029550;28;20217;-80
2022/11/26 05:58:37;;;;;;;7.00;4.70;;;;;;;8.11;89.15;96740.19;5028454;28;20209;-79
2022/11/26 06:01:08;;;;;;;7.93;4.57;;;;;;;8.10;89.03;96746.25;5040741;28;20224;-80
2022/11/26 06:03:35;;;;;;;7.27;4.70;;;;;;;8.14;89.11;96749.38;5042337;28;20190;-80
2022/11/26 06:06:01;;;;;;;8.03;4.77;;;;;;;8.15;88.87;96749.25;5029632;28;20205;-80
2022/11/26 06:08:28;;;;;;;7.00;4.60;;;;;;;8.13;88.86;96756.25;5029073;28;20260;-79
2022/11/26 06:10:54;;;;;;;7.63;4.40;;;;;;;8.12;89.01;96752.06;5028823;28;20231;-79
2022/11/26 06:13:22;;;;;;;5.87;4.37;;;;;;;8.15;88.62;96758.69;5032892;28;20204;-79
2022/11/26 06:15:49;;;;;;;6.37;4.13;;;;;;;8.18;89.04;96761.00;5046797;28;20201;-79
2022/11/26 06:18:16;;;;;;;7.83;4.93;;;;;;;8.11;88.64;96763.28;5030006;28;20190;-80
2022/11/26 06:20:42;;;;;;;11.07;5.13;;;;;;;8.07;89.03;96763.69;5029587;28;20200;-79
2022/11/26 06:23:09;;;;;;;6.40;4.90;;;;;;;8.00;89.40;96758.25;5030100;28;20213;-79
2022/11/26 06:25:36;;;;;;;8.27;4.50;;;;;;;7.93;89.43;96767.41;5029257;28;20194;-80
2022/11/26 06:28:02;;;;;;;6.23;4.60;;;;;;;7.98;89.51;96775.53;5038285;28;20217;-80
2022/11/26 06:30:30;;;;;;;7.10;4.40;;;;;;;7.89;90.11;96766.03;5038426;28;20206;-80
2022/11/26 06:32:57;;;;;;;8.10;4.37;;;;;;;7.89;90.12;96766.84;5025582;28;20206;-80
2022/11/26 06:35:23;;;;;;;6.80;4.57;;;;;;;7.94;90.68;96763.91;5029142;28;20569;-80
2022/11/26 06:37:49;;;;;;;20.50;14.37;;;;;;;7.88;91.72;96757.56;5029073;28;20820;-81
2022/11/26 06:40:18;;;;;;;9.40;5.87;;;;;;;7.86;91.42;96762.00;5032311;28;20588;-83
2022/11/26 06:42:48;;;;;;;8.77;5.00;;;;;;;7.94;91.56;96774.16;5050066;28;20617;-82
2022/11/26 06:45:14;;;;;;;8.20;4.60;;;;;;;7.97;91.24;96771.34;5039866;28;20194;-83
2022/11/26 06:47:42;;;;;;;7.13;4.50;;;;;;;8.01;90.62;96785.53;5029746;28;20415;-82
2022/11/26 06:50:11;;;;;;;6.33;4.10;;;;;;;8.03;90.50;96781.09;5030455;28;20211;-83
2022/11/26 06:52:37;;;;;;;6.47;4.20;;;;;;;8.07;90.26;96786.78;5029663;28;20302;-82
2022/11/26 06:55:04;;;;;;;6.77;3.57;;;;;;;8.30;99.80;96783.81;5030345;28;20211;-84
2022/11/26 06:57:30;;;;;;;6.43;3.73;;;;;;;8.32;89.26;96787.09;5030355;28;20221;-83
2022/11/26 06:59:57;;;;;;;5.43;3.87;;;;;;;8.26;88.71;96795.31;5030036;28;20229;-85
2022/11/26 07:02:23;;;;;;;6.43;3.73;;;;;;;8.23;88.24;96790.44;5026509;28;20297;-82
2022/11/26 07:04:51;;;;;;;6.33;3.93;;;;;;;8.20;88.59;96792.47;5030929;28;20194;-82
2022/11/26 07:07:18;;;;;;;6.17;3.67;;;;;;;8.16;88.32;96801.34;5030162;28;20218;-84
2022/11/26 07:09:44;;;;;;;6.43;3.87;;;;;;;8.11;88.08;96801.75;5030632;28;20214;-84
2022/11/26 07:12:11;;;;;;;8.33;3.53;;;;;;;8.10;88.54;96807.81;5029743;28;20230;-84
2022/11/26 07:14:37;;;;;;;6.27;3.23;;;;;;;8.09;88.71;96810.50;5030503;28;20204;-83
2022/11/26 07:17:04;;;;;;;6.07;3.33;;;;;;;8.03;88.48;96806.75;5029999;28;20205;-84
2022/11/26 07:19:30;;;;;;;5.00;3.00;;;;;;;8.04;88.72;96813.50;5030230;28;20203;-84
2022/11/26 07:21:58;;;;;;;4.20;2.77;;;;;;;8.00;88.71;96816.44;5029929;28;20237;-83
2022/11/26 07:24:25;;;;;;;3.73;2.70;;;;;;;7.95;88.32;96816.81;5031075;28;20305;-85
2022/11/26 07:26:51;;;;;;;3.90;2.73;;;;;;;8.00;87.70;96817.25;5031624;28;20913;-84
2022/11/26 07:29:18;;;;;;;4.83;2.77;;;;;;;7.93;89.01;96821.25;5032747;28;20202;-85
2022/11/26 07:31:44;;;;;;;3.97;2.30;;;;;;;8.00;88.42;96827.50;5036832;28;20241;-84
2022/11/26 07:34:10;;;;;;;3.50;2.63;;;;;;;8.01;88.87;96834.25;5033305;28;20194;-83
2022/11/26 07:36:41;;;;;;;5.23;2.50;;;;;;;8.03;88.94;96827.25;5028244;28;20697;-82
2022/11/26 07:39:11;;;;;;;3.37;2.47;;;;;;;8.00;88.16;96826.69;5025148;28;20195;-83
2022/11/26 07:41:38;;;;;;;4.33;2.17;;;;;;;7.95;87.61;96833.03;5033720;28;20229;-81
2022/11/26 07:44:04;;;;;;;4.73;2.30;;;;;;;8.01;87.71;96830.88;5032341;28;20198;-82
2022/11/26 07:46:31;;;;;;;2.83;2.10;;;;;;;8.04;87.69;96844.28;5032724;28;20209;-82
2022/11/26 07:48:57;;;;;;;5.10;2.43;;;;;;;8.10;87.21;96841.16;5032658;28;20670;-80
2022/11/26 07:51:26;;;;;;;7.03;2.67;;;;;;;8.21;96.82;96843.66;5032860;28;20233;-84
2022/11/26 07:53:53;;;;;;;2.20;1.90;;;;;;;8.43;90.62;96847.78;5033817;28;20198;-82
2022/11/26 07:56:21;;;;;;;2.20;1.70;;;;;;;8.44;86.73;96846.84;5034308;28;20470;-81
2022/11/26 07:58:48;;;;;;;3.97;1.90;;;;;;;8.40;87.88;96844.66;5033501;28;20198;-82
2022/11/26 08:01:16;;;;;;;2.13;1.63;;;;;;;8.51;86.03;96845.34;5032916;28;20733;-81
2022/11/26 08:03:45;;;;;;;2.87;1.77;;;;;;;8.48;85.14;96839.66;5032094;28;20194;-82
2022/11/26 08:06:13;;;;;;;3.90;1.80;;;;;;;8.40;84.83;96848.06;5031917;28;20217;-83
2022/11/26 08:08:40;;;;;;;2.23;1.70;;;;;;;8.37;85.70;96855.19;5029191;28;20850;-83
2022/11/26 08:11:12;;;;;;;2.53;1.80;;;;;;;8.22;85.70;96863.22;5023266;28;20218;-83
2022/11/26 08:13:40;;;;;;;2.27;1.90;;;;;;;8.18;85.77;96861.03;5026497;28;20202;-82
2022/11/26 08:16:07;;;;;;;3.50;2.20;;;;;;;8.13;86.67;96865.75;5029363;28;20736;-80
2022/11/26 08:18:33;;;;;;;5.33;2.10;;;;;;;8.08;86.84;96861.00;5024222;28;20194;-81
2022/11/26 08:21:00;;;;;;;5.83;3.20;;;;;;;8.43;98.69;96865.75;5025060;28;20227;-81
2022/11/26 08:23:31;;;;;;;2.30;1.80;;;;;;;8.57;86.78;96865.38;5025946;28;20624;-81
2022/11/26 08:26:12;;;;;;;2.50;2.07;;;;;;;8.53;85.47;96865.75;5025172;28;20551;-80
2022/11/26 08:28:41;;;;;;;4.37;2.30;;;;;;;8.37;84.98;96863.69;5025941;28;20210;-81
2022/11/26 08:31:10;;;;;;;3.27;2.07;;;;;;;8.30;85.85;96867.69;5027107;28;20225;-82
2022/11/26 08:33:37;;;;;;;4.90;3.73;;;;;;;8.27;86.05;96867.97;5033117;28;20190;-82
2022/11/26 08:36:04;;;;;;;6.73;4.20;;;;;;;8.26;86.55;96868.91;5037777;28;20342;-81
2022/11/26 08:38:30;;;;;;;7.37;4.83;;;;;;;8.22;86.95;96870.13;5033166;28;20201;-81
2022/11/26 08:41:00;;;;;;;6.33;4.00;;;;;;;8.21;86.72;96868.50;5032545;28;20222;-80
2022/11/26 08:43:26;;;;;;;4.17;2.70;;;;;;;8.12;87.25;96874.38;5032704;28;20206;-82
2022/11/26 08:45:55;;;;;;;4.90;3.60;;;;;;;8.17;87.46;96873.06;5031782;28;20205;-82
2022/11/26 08:48:22;;;;;;;3.33;2.80;;;;;;;8.18;87.46;96877.25;5031927;28;20233;-82
2022/11/26 08:50:49;;;;;;;5.37;3.57;;;;;;;8.21;87.00;96868.50;5032462;28;20202;-81
2022/11/26 08:53:16;;;;;;;5.07;2.73;;;;;;;8.13;87.35;96865.75;5032265;28;20202;-79
2022/11/26 08:55:42;;;;;;;4.67;2.67;;;;;;;8.20;87.38;96872.81;5041104;28;20577;-82
2022/11/26 08:58:09;;;;;;;4.27;2.83;;;;;;;8.39;86.82;96869.53;5052442;28;20202;-82
2022/11/26 09:00:35;;;;;;;4.03;2.60;;;;;;;8.66;86.64;96879.97;5052553;28;20212;-81
2022/11/26 09:03:03;;;;;;;4.23;2.53;;;;;;;8.88;84.83;96878.91;5052162;28;20205;-83
2022/11/26 09:05:30;;;;;;;4.47;2.90;;;;;;;8.84;83.91;96885.28;5042112;28;20229;-83
2022/11/26 09:07:56;;;;;;;3.60;2.57;;;;;;;8.73;84.26;96893.09;5031901;28;20224;-82
2022/11/26 09:10:23;;;;;;;4.33;3.43;;;;;;;8.71;84.80;96894.97;5032010;28;20297;-83
2022/11/26 09:12:49;;;;;;;3.63;3.20;;;;;;;8.77;85.15;96903.91;5031371;28;20222;-83
2022/11/26 09:15:16;;;;;;;5.20;3.57;;;;;;;8.88;84.96;96899.47;5032074;28;20704;-83
2022/11/26 09:17:42;;;;;;;5.40;3.17;;;;;;;8.93;84.53;96906.78;5031283;28;20205;-83
2022/11/26 09:20:11;;;;;;;3.97;2.83;;;;;;;8.97;85.08;96906.38;5032008;28;20190;-82
2022/11/26 09:22:38;;;;;;;4.83;3.60;;;;;;;8.96;84.75;96907.31;5031919;28;20260;-80
2022/11/26 09:25:05;;;;;;;4.50;2.90;;;;;;;8.91;83.94;96909.47;5031416;28;20268;-82
2022/11/26 09:27:32;;;;;;;4.27;3.40;;;;;;;8.97;83.98;96919.22;5031593;28;20226;-82
2022/11/26 09:29:58;;;;;;;5.50;3.20;;;;;;;8.99;83.86;96919.91;5031305;28;20202;-81
2022/11/26 09:32:24;;;;;;;4.10;3.10;;;;;;;8.86;83.41;96931.34;5031145;28;20862;-84
2022/11/26 09:34:51;;;;;;;5.20;3.20;;;;;;;8.80;83.85;96934.47;5031712;28;20669;-83
2022/11/26 09:37:19;;;;;;;4.43;3.10;;;;;;;8.81;84.12;96931.78;5031766;28;20207;-83
2022/11/26 09:39:45;;;;;;;4.77;2.93;;;;;;;8.81;84.91;96933.53;5030863;28;20213;-81
2022/11/26 09:42:26;;;;;;;13.67;9.23;;;;;;;8.78;85.48;96937.16;5030962;28;20230;-81
2022/11/26 09:45:02;;;;;;;8.00;6.37;;;;;;;8.79;85.42;96935.41;5031349;28;20190;-82
2022/11/26 09:47:35;;;;;;;8.20;4.03;;;;;;;8.83;84.89;96932.47;5031125;28;20818;-82
2022/11/26 09:50:11;;;;;;;6.03;3.20;;;;;;;8.77;85.23;96932.16;5037292;28;20644;-83
2022/11/26 09:52:42;;;;;;;9.63;3.57;;;;;;;8.74;86.63;96930.66;5050648;28;20247;-81
2022/11/26 09:55:15;;;;;;;4.87;2.97;;;;;;;8.76;87.24;96931.34;5051245;28;20620;-81
2022/11/26 09:57:43;;;;;;;4.97;2.90;;;;;;;9.00;96.29;96933.56;5050585;28;20208;-82
2022/11/26 10:00:22;;;;;;;5.13;3.00;;;;;;;9.40;96.28;96930.88;5046317;28;20199;-80
2022/11/26 10:02:52;;;;;;;4.87;2.93;;;;;;;9.52;88.47;96932.34;5021773;28;20697;-82
2022/11/26 10:05:20;;;;;;;5.60;2.50;;;;;;;9.70;89.65;96922.19;5022361;28;20225;-82
2022/11/26 10:08:02;;;;;;;5.30;2.43;;;;;;;9.84;82.96;96924.31;5029867;28;20225;-81
2022/11/26 10:10:35;;;;;;;3.43;2.37;;;;;;;9.76;81.08;96923.41;5022360;28;20213;-83
2022/11/26 10:13:14;;;;;;;3.10;2.23;;;;;;;9.60;81.20;96927.34;5029418;28;20202;-83
2022/11/26 10:15:49;;;;;;;8.43;4.90;;;;;;;9.52;82.17;96923.81;5029956;28;20194;-83
2022/11/26 10:18:27;;;;;;;11.00;7.27;;;;;;;9.46;82.60;96924.38;5030218;28;20209;-81
2022/11/26 10:21:14;;;;;;;8.13;4.60;;;;;;;9.32;83.42;96920.44;5024278;28;20232;-81
2022/11/26 10:23:46;;;;;;;5.30;2.97;;;;;;;9.28;83.93;96921.66;5030526;28;20194;-81
2022/11/26 10:26:16;;;;;;;5.87;3.20;;;;;;;9.22;83.71;96920.47;5021953;28;20203;-82
2022/11/26 10:28:45;;;;;;;4.97;3.00;;;;;;;9.14;84.43;96922.06;5030008;28;20214;-82
2022/11/26 10:31:18;;;;;;;5.03;3.30;;;;;;;9.07;83.92;96924.34;5029806;28;20579;-82
2022/11/26 10:33:52;;;;;;;4.80;3.07;;;;;;;9.07;84.43;96918.41;5029340;28;20565;-82
2022/11/26 10:36:23;;;;;;;5.90;3.20;;;;;;;9.04;83.87;96918.69;5029846;28;20201;-80
2022/11/26 10:38:52;;;;;;;5.57;3.40;;;;;;;8.85;84.73;96920.28;5029825;28;20194;-82
2022/11/26 10:41:19;;;;;;;7.77;3.77;;;;;;;8.87;85.09;96917.56;5030240;28;20226;-83
2022/11/26 10:43:46;;;;;;;7.47;3.90;;;;;;;8.85;85.76;96927.19;5028491;28;20202;-82
2022/11/26 10:46:30;;;;;;;5.73;3.80;;;;;;;8.86;85.76;96923.66;5029522;28;20199;-82
2022/11/26 10:49:15;;;;;;;8.43;4.40;;;;;;;8.85;86.08;96922.06;5029000;28;20748;-81
2022/11/26 10:51:45;;;;;;;5.20;4.57;;;;;;;8.76;86.73;96922.84;5024416;28;20218;-80
2022/11/26 10:54:23;;;;;;;6.53;4.60;;;;;;;8.71;87.52;96915.53;5028218;28;20203;-82
2022/11/26 10:56:52;;;;;;;28.40;21.23;;;;;;;8.70;87.42;96908.75;5020434;28;20198;-83
2022/11/26 10:59:22;;;;;;;17.00;13.17;;;;;;;8.75;87.06;96911.75;5017801;28;20682;-84
2022/11/26 11:01:49;;;;;;;7.90;5.53;;;;;;;8.80;86.20;96916.50;5030759;28;20214;-79
2022/11/26 11:04:26;;;;;;;8.23;5.27;;;;;;;8.73;86.73;96907.69;5033708;28;20198;-84
2022/11/26 11:06:52;;;;;;;7.67;5.50;;;;;;;8.78;86.99;96905.53;5024958;28;20198;-83
2022/11/26 11:09:26;;;;;;;6.60;5.37;;;;;;;8.75;87.33;96906.63;5031947;28;20746;-83
2022/11/26 11:12:23;;;;;;;9.87;5.30;;;;;;;8.84;87.54;96898.13;5031638;28;20218;-83
2022/11/26 11:14:51;;;;;;;8.70;6.17;;;;;;;8.89;87.55;96895.13;4969896;28;20204;-83
2022/11/26 11:17:36;;;;;;;10.67;5.67;;;;;;;8.91;86.32;96888.13;5034182;28;20197;-83
2022/11/26 11:20:27;;;;;;;7.83;5.47;;;;;;;8.98;85.72;96889.22;5044569;28;20194;-83
2022/11/26 11:22:59;;;;;;;6.73;5.20;;;;;;;9.02;85.42;96880.28;5031717;28;20308;-81
2022/11/26 11:25:30;;;;;;;8.33;5.67;;;;;;;8.90;85.49;96882.16;5032596;28;20202;-83
2022/11/26 11:28:01;;;;;;;6.57;5.40;;;;;;;8.92;85.38;96876.91;5030788;28;20213;-82
2022/11/26 11:30:31;;;;;;;7.13;5.37;;;;;;;8.83;85.21;96877.72;5031418;28;20214;-81
2022/11/26 11:33:09;;;;;;;11.30;5.57;;;;;;;8.88;85.49;96875.53;5032095;28;20214;-83
2022/11/26 11:35:35;;;;;;;7.37;6.37;;;;;;;8.86;85.20;96880.81;5031864;28;20256;-83
2022/11/26 11:38:02;;;;;;;8.03;6.27;;;;;;;8.91;85.51;96870.13;5032147;28;20202;-80
2022/11/26 11:40:32;;;;;;;8.93;6.13;;;;;;;8.95;85.42;96881.78;5031792;28;20291;-82
2022/11/26 11:43:01;;;;;;;14.37;8.17;;;;;;;9.02;84.80;96875.16;5032153;28;20260;-83
2022/11/26 11:45:34;;;;;;;20.73;15.63;;;;;;;8.95;85.50;96876.63;5032469;28;20198;-83
2022/11/26 11:48:15;;;;;;;19.90;12.17;;;;;;;8.96;85.21;96883.41;5024600;28;20218;-83
2022/11/26 11:50:45;;;;;;;9.67;7.03;;;;;;;8.92;85.38;96890.56;5032004;28;20198;-82